Bringhurst, Indiana
Current Conditions -  °F | °C
As of 3:55 PM on Thursday 18 Dec 2014 (Local Time) from KGGP Reporting Station
Overcast Overcast  
Wind Chill: 28°   Ceiling: 5000
Heat Index: 28°   Visibility: 10mi
Dew Point: 21°   Wind: 3mph
Humidity: 74%   Direction: 310°NW
Pressure: 30.23"   Gusts: NA
Location:  40.53°N, 86.52°W
Report Text: KGGP 182055Z AUTO 31003KT 10SM SCT016 OVC050 M02/M06 A3023 RMK AO2
Loading
Personal Weather Stations






























Interactive Weather Map New forecast layout! Learn more

10-Day Weather Forecast

Advertisements
Track Severe Weather on mobile